createdAt,value
2023-05-21T00:00:10.766Z,62.27
2023-05-21T00:02:43.020Z,62.69
2023-05-21T00:05:15.318Z,62.92
2023-05-21T00:07:44.113Z,63.37
2023-05-21T00:10:12.964Z,63.10
2023-05-21T00:12:41.909Z,63.78
2023-05-21T00:15:11.638Z,63.31
2023-05-21T00:17:41.912Z,63.02
2023-05-21T00:20:10.810Z,63.36
2023-05-21T00:22:40.321Z,63.25
2023-05-21T00:25:09.647Z,63.44
2023-05-21T00:27:38.091Z,63.40
2023-05-21T00:30:09.075Z,63.35
2023-05-21T00:32:38.082Z,63.87
2023-05-21T00:35:09.971Z,64.06
2023-05-21T00:37:38.702Z,64.21
2023-05-21T00:40:11.760Z,64.11
2023-05-21T00:42:41.256Z,64.27
2023-05-21T00:45:10.664Z,63.89
2023-05-21T00:47:39.381Z,63.92
2023-05-21T00:50:11.261Z,64.54
2023-05-21T00:52:42.604Z,64.26
2023-05-21T00:55:12.064Z,64.70
2023-05-21T00:57:42.562Z,64.46
2023-05-21T01:00:15.409Z,64.08
2023-05-21T01:02:44.365Z,64.07
2023-05-21T01:05:15.641Z,64.29
2023-05-21T01:07:44.474Z,64.34
2023-05-21T01:10:13.588Z,64.59
2023-05-21T01:12:44.975Z,64.03
2023-05-21T01:15:14.280Z,63.20
2023-05-21T01:17:46.176Z,63.79
2023-05-21T01:20:20.326Z,63.09
2023-05-21T01:22:54.511Z,63.21
2023-05-21T01:25:24.217Z,62.39
2023-05-21T01:27:52.958Z,62.29
2023-05-21T01:30:23.395Z,61.71
2023-05-21T01:33:01.182Z,61.84
2023-05-21T01:35:34.212Z,61.76
2023-05-21T01:38:13.492Z,61.94
2023-05-21T01:40:52.078Z,61.86
2023-05-21T01:43:22.748Z,61.34
2023-05-21T01:45:56.363Z,61.78
2023-05-21T01:48:26.588Z,61.68
2023-05-21T01:50:56.898Z,62.09
2023-05-21T01:53:26.849Z,61.57
2023-05-21T01:55:55.635Z,61.74
2023-05-21T01:58:24.356Z,61.41
2023-05-21T02:00:53.014Z,61.51
2023-05-21T02:03:22.033Z,62.27
2023-05-21T02:05:52.075Z,62.01
2023-05-21T02:08:23.461Z,61.41
2023-05-21T02:10:53.754Z,61.40
2023-05-21T02:13:25.800Z,61.76
2023-05-21T02:15:55.374Z,61.15
2023-05-21T02:18:26.453Z,61.31
2023-05-21T02:20:55.025Z,61.20
2023-05-21T02:23:23.577Z,60.71
2023-05-21T02:25:53.403Z,60.91
2023-05-21T02:28:22.277Z,61.06
2023-05-21T02:30:50.685Z,60.88
2023-05-21T02:33:20.326Z,61.35
2023-05-21T02:35:48.742Z,61.59
2023-05-21T02:38:19.511Z,61.57
2023-05-21T02:40:48.146Z,62.35
2023-05-21T02:43:18.143Z,62.11
2023-05-21T02:45:47.185Z,61.93
2023-05-21T02:48:16.263Z,61.66
2023-05-21T02:50:45.048Z,61.74
2023-05-21T02:53:13.393Z,61.12
2023-05-21T02:55:42.120Z,61.64
2023-05-21T02:58:13.471Z,61.83
2023-05-21T03:00:43.628Z,62.33
2023-05-21T03:03:12.949Z,62.24
2023-05-21T03:05:41.500Z,62.32
2023-05-21T03:08:09.860Z,62.61
2023-05-21T03:10:38.092Z,63.41
2023-05-21T03:13:09.489Z,63.73
2023-05-21T03:15:39.308Z,63.58
2023-05-21T03:18:09.598Z,63.86
2023-05-21T03:20:43.619Z,64.03
2023-05-21T03:23:14.215Z,63.90
2023-05-21T03:25:46.083Z,64.29
2023-05-21T03:28:15.070Z,64.25
2023-05-21T03:30:51.077Z,64.22
2023-05-21T03:33:48.462Z,65.21
2023-05-21T03:36:22.538Z,64.86
2023-05-21T03:38:50.934Z,64.71
2023-05-21T03:41:19.887Z,64.68
2023-05-21T03:43:52.416Z,64.85
2023-05-21T03:46:23.579Z,64.92
2023-05-21T03:49:07.268Z,64.74
2023-05-21T03:51:38.383Z,64.94
2023-05-21T03:54:07.085Z,64.78
2023-05-21T03:56:37.641Z,64.33
2023-05-21T03:59:06.044Z,63.77
2023-05-21T04:01:35.006Z,64.09
2023-05-21T04:04:05.955Z,63.97
2023-05-21T04:06:36.845Z,64.27
2023-05-21T04:09:06.107Z,63.71
2023-05-21T04:11:34.346Z,64.06
2023-05-21T04:14:02.919Z,64.40
2023-05-21T04:16:31.354Z,64.22
2023-05-21T04:18:59.896Z,64.60
2023-05-21T04:21:29.091Z,64.58
2023-05-21T04:24:00.911Z,64.15
2023-05-21T04:26:48.629Z,64.00
2023-05-21T04:29:18.257Z,63.89
2023-05-21T04:31:47.240Z,63.64
2023-05-21T04:34:17.896Z,63.27
2023-05-21T04:36:47.282Z,63.33
2023-05-21T04:39:17.733Z,63.14
2023-05-21T04:41:46.242Z,62.98
2023-05-21T04:44:15.424Z,63.68
2023-05-21T04:46:46.325Z,63.38
2023-05-21T04:49:15.391Z,63.47
2023-05-21T04:51:43.952Z,63.40
2023-05-21T04:54:12.450Z,63.37
2023-05-21T04:56:42.570Z,63.69
2023-05-21T04:59:11.200Z,64.60
2023-05-21T05:01:39.379Z,63.95
2023-05-21T05:04:07.942Z,63.99
2023-05-21T05:06:36.324Z,63.74
2023-05-21T05:09:04.885Z,63.22
2023-05-21T05:11:33.272Z,63.05
2023-05-21T05:14:02.928Z,62.81
2023-05-21T05:16:31.800Z,62.82
2023-05-21T05:19:01.048Z,63.03
2023-05-21T05:21:29.704Z,62.71
2023-05-21T05:23:58.104Z,63.26
2023-05-21T05:26:29.610Z,62.94
2023-05-21T05:28:58.327Z,63.11
2023-05-21T05:31:28.236Z,62.18
2023-05-21T05:33:56.768Z,62.12
2023-05-21T05:36:26.231Z,61.42
2023-05-21T05:38:54.910Z,61.90
2023-05-21T05:41:24.039Z,61.18
2023-05-21T05:43:52.382Z,60.46
2023-05-21T05:46:23.399Z,60.47
2023-05-21T05:48:54.188Z,60.72
2023-05-21T05:51:23.267Z,59.95
2023-05-21T05:53:52.575Z,61.23
2023-05-21T05:56:21.328Z,61.28
2023-05-21T05:58:49.599Z,60.25
2023-05-21T06:01:20.429Z,59.79
2023-05-21T06:03:48.801Z,60.00
2023-05-21T06:06:20.892Z,59.55
2023-05-21T06:08:49.448Z,60.40
2023-05-21T06:11:19.069Z,59.87
2023-05-21T06:13:47.664Z,60.06
2023-05-21T06:16:18.843Z,60.10
2023-05-21T06:18:47.595Z,59.91
2023-05-21T06:21:15.958Z,60.18
2023-05-21T06:23:45.673Z,59.81
2023-05-21T06:26:13.979Z,60.30
2023-05-21T06:28:42.584Z,59.38
2023-05-21T06:31:13.744Z,59.81
2023-05-21T06:33:43.835Z,59.56
2023-05-21T06:36:12.524Z,59.21
2023-05-21T06:38:42.665Z,58.79
2023-05-21T06:41:12.830Z,57.61
2023-05-21T06:43:51.229Z,58.11
2023-05-21T06:46:38.318Z,57.59
2023-05-21T06:49:09.487Z,58.48
2023-05-21T06:51:38.125Z,57.68
2023-05-21T06:54:07.095Z,57.79
2023-05-21T06:56:38.736Z,58.54
2023-05-21T06:59:07.085Z,57.90
2023-05-21T07:01:35.992Z,56.67
2023-05-21T07:04:04.560Z,57.31
2023-05-21T07:06:33.145Z,56.48
2023-05-21T07:09:01.485Z,56.47
2023-05-21T07:11:31.198Z,56.49
2023-05-21T07:14:03.933Z,55.44
2023-05-21T07:16:34.508Z,54.65
2023-05-21T07:19:03.856Z,54.10
2023-05-21T07:21:32.566Z,53.86
2023-05-21T07:24:00.970Z,53.69
2023-05-21T07:26:29.315Z,53.19
2023-05-21T07:28:57.805Z,54.10
2023-05-21T07:31:29.108Z,55.32
2023-05-21T07:33:57.351Z,53.89
2023-05-21T07:36:30.053Z,54.17
2023-05-21T07:38:58.679Z,53.50
2023-05-21T07:41:27.211Z,54.34
2023-05-21T07:43:55.930Z,54.69
2023-05-21T07:46:24.534Z,54.84
2023-05-21T07:48:57.714Z,54.76
2023-05-21T07:51:26.916Z,55.41
2023-05-21T07:53:56.282Z,54.97
2023-05-21T07:56:32.411Z,56.06
2023-05-21T07:59:01.312Z,55.62
2023-05-21T08:01:30.884Z,56.22
2023-05-21T08:04:05.768Z,54.92
2023-05-21T08:06:35.045Z,55.18
2023-05-21T08:09:03.361Z,54.21
2023-05-21T08:11:31.791Z,53.89
2023-05-21T08:14:01.106Z,52.11
2023-05-21T08:16:29.726Z,50.14
2023-05-21T08:18:58.133Z,49.80
2023-05-21T08:21:27.937Z,48.22
2023-05-21T08:23:57.266Z,48.67
2023-05-21T08:26:26.809Z,48.07
2023-05-21T08:28:55.227Z,48.39
2023-05-21T08:31:24.041Z,48.37
2023-05-21T08:33:56.432Z,48.41
2023-05-21T08:36:38.925Z,47.31
2023-05-21T08:39:16.893Z,48.99
2023-05-21T08:41:49.674Z,46.76
2023-05-21T08:44:22.763Z,47.11
2023-05-21T08:46:52.489Z,48.09
2023-05-21T08:49:27.854Z,49.92
2023-05-21T08:51:59.953Z,49.40
2023-05-21T08:54:29.339Z,48.00
2023-05-21T08:56:59.787Z,48.26
2023-05-21T08:59:28.322Z,48.25
2023-05-21T09:01:57.773Z,47.06
2023-05-21T09:04:33.923Z,47.09
2023-05-21T09:07:04.570Z,47.05
2023-05-21T09:10:10.053Z,46.56
2023-05-21T09:12:38.841Z,46.11
2023-05-21T09:15:08.866Z,45.06
2023-05-21T09:17:38.938Z,46.63
2023-05-21T09:20:26.910Z,48.75
2023-05-21T09:23:06.103Z,46.63
2023-05-21T09:25:34.659Z,47.05
2023-05-21T09:28:13.631Z,47.27
2023-05-21T09:30:46.901Z,48.77
2023-05-21T09:33:26.492Z,46.41
2023-05-21T09:35:54.969Z,46.70
2023-05-21T09:38:26.108Z,44.62
2023-05-21T09:40:57.433Z,45.78
2023-05-21T09:43:26.983Z,45.43
2023-05-21T09:46:00.477Z,46.67
2023-05-21T09:48:37.370Z,45.66
2023-05-21T09:51:13.840Z,45.57
2023-05-21T09:53:52.106Z,46.05
2023-05-21T09:56:25.352Z,43.64
2023-05-21T09:58:55.652Z,46.30
2023-05-21T10:01:25.084Z,45.58
2023-05-21T10:03:57.599Z,45.04
2023-05-21T10:06:27.944Z,45.92
2023-05-21T10:09:01.623Z,45.16
2023-05-21T10:11:33.282Z,44.09
2023-05-21T10:14:07.083Z,45.55
2023-05-21T10:16:37.852Z,45.00
2023-05-21T10:19:10.985Z,44.05
2023-05-21T10:21:40.774Z,43.77
2023-05-21T10:24:11.817Z,43.79
2023-05-21T10:26:42.248Z,46.08
2023-05-21T10:29:10.988Z,42.26
2023-05-21T10:31:40.636Z,43.26
2023-05-21T10:34:09.427Z,43.61
2023-05-21T10:36:39.164Z,43.37
2023-05-21T10:39:10.850Z,44.34
2023-05-21T10:41:48.956Z,44.66
2023-05-21T10:44:31.747Z,44.17
2023-05-21T10:47:52.846Z,42.99
2023-05-21T10:51:11.412Z,41.50
2023-05-21T10:54:07.159Z,41.53
2023-05-21T10:56:43.974Z,43.98
2023-05-21T10:59:23.021Z,43.59
2023-05-21T11:01:54.120Z,42.04
2023-05-21T11:04:28.045Z,44.57
2023-05-21T11:06:57.424Z,42.83
2023-05-21T11:09:25.991Z,45.14
2023-05-21T11:12:00.148Z,43.51
2023-05-21T11:14:35.394Z,44.20
2023-05-21T11:17:05.803Z,44.89
2023-05-21T11:19:38.004Z,42.80
2023-05-21T11:22:21.987Z,44.39
2023-05-21T11:24:51.507Z,43.04
2023-05-21T11:27:36.651Z,40.92
2023-05-21T11:30:08.233Z,43.09
2023-05-21T11:32:40.382Z,44.16
2023-05-21T11:35:10.557Z,43.01
2023-05-21T11:37:41.957Z,42.90
2023-05-21T11:40:26.796Z,42.72
2023-05-21T11:42:57.523Z,42.03
2023-05-21T11:45:32.205Z,42.16
2023-05-21T11:48:01.284Z,40.65
2023-05-21T11:50:33.930Z,38.53
2023-05-21T11:53:02.577Z,39.21
2023-05-21T11:55:32.079Z,40.72
2023-05-21T11:58:03.249Z,39.85
2023-05-21T12:00:31.861Z,40.52
2023-05-21T12:03:00.326Z,40.83
2023-05-21T12:05:28.727Z,41.43
2023-05-21T12:07:58.475Z,39.43
2023-05-21T12:10:28.240Z,37.97
2023-05-21T12:12:57.557Z,38.17
2023-05-21T12:15:29.092Z,40.21
2023-05-21T12:17:58.236Z,39.00
2023-05-21T12:20:30.175Z,38.56
2023-05-21T12:23:00.524Z,39.59
2023-05-21T12:25:30.073Z,39.70
2023-05-21T12:27:58.926Z,39.87
2023-05-21T12:30:29.767Z,41.92
2023-05-21T12:33:02.089Z,40.33
2023-05-21T12:35:32.416Z,41.88
2023-05-21T12:38:03.214Z,42.09
2023-05-21T12:40:39.276Z,41.67
2023-05-21T12:43:08.704Z,42.19
2023-05-21T12:45:40.576Z,40.62
2023-05-21T12:48:09.515Z,40.71
2023-05-21T12:50:42.399Z,41.86
2023-05-21T12:53:12.391Z,42.97
2023-05-21T12:55:41.166Z,41.78
2023-05-21T12:58:09.680Z,42.92
2023-05-21T13:00:39.497Z,43.59
2023-05-21T13:03:08.957Z,43.32
2023-05-21T13:05:41.404Z,44.00
2023-05-21T13:08:10.705Z,44.75
2023-05-21T13:10:39.385Z,45.62
2023-05-21T13:13:08.070Z,46.72
2023-05-21T13:15:36.336Z,44.19
2023-05-21T13:18:06.207Z,44.93
2023-05-21T13:20:34.626Z,44.26
2023-05-21T13:23:05.833Z,45.13
2023-05-21T13:25:35.519Z,45.22
2023-05-21T13:28:06.746Z,46.68
2023-05-21T13:30:35.397Z,46.38
2023-05-21T13:33:07.840Z,45.19
2023-05-21T13:35:36.401Z,44.85
2023-05-21T13:38:04.671Z,44.82
2023-05-21T13:40:33.335Z,46.14
2023-05-21T13:43:01.602Z,45.88
2023-05-21T13:45:30.001Z,46.13
2023-05-21T13:47:58.445Z,46.17
2023-05-21T13:50:28.452Z,46.41
2023-05-21T13:52:56.694Z,47.55
2023-05-21T13:55:24.946Z,47.63
2023-05-21T13:57:53.388Z,45.18
2023-05-21T14:00:22.057Z,45.75
2023-05-21T14:02:52.259Z,46.29
2023-05-21T14:05:20.833Z,46.25
2023-05-21T14:07:51.470Z,46.81
2023-05-21T14:10:20.548Z,46.17
2023-05-21T14:12:49.011Z,46.38
2023-05-21T14:15:17.591Z,47.49
2023-05-21T14:17:46.109Z,45.29
2023-05-21T14:20:14.602Z,46.29
2023-05-21T14:22:43.195Z,45.66
2023-05-21T14:25:12.874Z,45.81
2023-05-21T14:27:41.582Z,45.19
2023-05-21T14:30:12.656Z,44.86
2023-05-21T14:32:41.083Z,45.75
2023-05-21T14:35:11.238Z,44.89
2023-05-21T14:37:39.836Z,46.14
2023-05-21T14:40:10.416Z,45.49
2023-05-21T14:42:40.107Z,45.41
2023-05-21T14:45:18.584Z,47.62
2023-05-21T14:47:48.995Z,47.33
2023-05-21T14:50:19.000Z,46.14
2023-05-21T14:52:47.468Z,46.63
2023-05-21T14:55:16.996Z,46.28
2023-05-21T14:57:46.728Z,46.65
2023-05-21T15:00:16.262Z,46.28
2023-05-21T15:02:44.930Z,45.82
2023-05-21T15:05:13.604Z,45.32
2023-05-21T15:07:42.063Z,45.49
2023-05-21T15:10:11.598Z,45.69
2023-05-21T15:12:41.828Z,46.24
2023-05-21T15:15:13.568Z,46.08
2023-05-21T15:17:42.205Z,45.81
2023-05-21T15:20:11.792Z,44.65
2023-05-21T15:22:40.308Z,46.26
2023-05-21T15:25:09.681Z,45.95
2023-05-21T15:27:37.983Z,47.18
2023-05-21T15:30:08.294Z,46.90
2023-05-21T15:32:38.182Z,47.77
2023-05-21T15:35:07.701Z,47.18
2023-05-21T15:37:36.069Z,45.71
2023-05-21T15:40:05.209Z,45.51
2023-05-21T15:42:33.572Z,46.32
2023-05-21T15:45:02.068Z,46.67
2023-05-21T15:47:30.467Z,47.45
2023-05-21T15:50:00.548Z,47.51
2023-05-21T15:52:28.959Z,48.83
2023-05-21T15:54:57.448Z,48.56
2023-05-21T15:57:25.649Z,48.69
2023-05-21T15:59:54.099Z,48.61
2023-05-21T16:02:22.705Z,49.27
2023-05-21T16:04:52.216Z,48.32
2023-05-21T16:07:21.852Z,47.48
2023-05-21T16:09:50.379Z,48.17
2023-05-21T16:12:19.102Z,48.99
2023-05-21T16:14:50.249Z,47.56
2023-05-21T16:17:19.664Z,48.05
2023-05-21T16:19:48.393Z,48.37
2023-05-21T16:22:17.118Z,48.35
2023-05-21T16:24:47.227Z,48.51
2023-05-21T16:27:15.761Z,48.10
2023-05-21T16:29:44.319Z,47.92
2023-05-21T16:32:14.163Z,47.45
2023-05-21T16:34:42.629Z,47.46
2023-05-21T16:37:11.453Z,48.55
2023-05-21T16:39:40.358Z,49.21
2023-05-21T16:42:10.024Z,48.71
2023-05-21T16:44:39.516Z,48.25
2023-05-21T16:47:08.821Z,49.26
2023-05-21T16:49:36.973Z,49.34
2023-05-21T16:52:05.540Z,48.53
2023-05-21T16:54:34.957Z,48.97
2023-05-21T16:57:03.204Z,49.55
2023-05-21T16:59:32.855Z,49.36
2023-05-21T17:02:01.343Z,50.46
2023-05-21T17:04:30.356Z,50.24
2023-05-21T17:06:58.596Z,50.48
2023-05-21T17:09:27.085Z,50.69
2023-05-21T17:11:57.468Z,50.51
2023-05-21T17:14:34.457Z,51.28
2023-05-21T17:17:05.388Z,51.28
2023-05-21T17:19:33.768Z,51.46
2023-05-21T17:22:02.272Z,50.91
2023-05-21T17:24:30.900Z,51.56
2023-05-21T17:26:59.295Z,51.73
2023-05-21T17:29:27.556Z,51.61
2023-05-21T17:31:56.292Z,51.80
2023-05-21T17:34:29.506Z,52.40
2023-05-21T17:37:00.027Z,52.71
2023-05-21T17:39:28.251Z,52.88
2023-05-21T17:41:57.776Z,53.61
2023-05-21T17:44:26.351Z,53.20
2023-05-21T17:46:54.681Z,53.32
2023-05-21T17:49:23.114Z,53.15
2023-05-21T17:51:53.848Z,52.43
2023-05-21T17:54:22.470Z,52.97
2023-05-21T17:56:50.776Z,53.42
2023-05-21T17:59:19.512Z,54.46
2023-05-21T18:01:47.926Z,54.91
2023-05-21T18:04:16.461Z,54.70
2023-05-21T18:06:44.918Z,54.81
2023-05-21T18:09:16.006Z,55.10
2023-05-21T18:11:45.204Z,55.39
2023-05-21T18:14:13.760Z,56.07
2023-05-21T18:16:43.293Z,55.88
2023-05-21T18:19:11.929Z,57.00
2023-05-21T18:21:40.560Z,56.02
2023-05-21T18:24:09.542Z,56.43
2023-05-21T18:26:39.078Z,55.98
2023-05-21T18:29:07.432Z,56.03
2023-05-21T18:31:35.742Z,56.47
2023-05-21T18:34:04.072Z,57.05
2023-05-21T18:36:38.484Z,57.74
2023-05-21T18:39:07.764Z,57.46
2023-05-21T18:41:37.640Z,57.97
2023-05-21T18:44:07.508Z,58.18
2023-05-21T18:46:36.319Z,59.04
2023-05-21T18:49:04.725Z,58.87
2023-05-21T18:51:33.064Z,59.14
2023-05-21T18:54:01.265Z,58.20
2023-05-21T18:56:29.630Z,58.55
2023-05-21T18:58:57.910Z,58.92
2023-05-21T19:01:28.090Z,59.63
2023-05-21T19:03:56.500Z,59.78
2023-05-21T19:06:25.588Z,60.21
2023-05-21T19:08:54.214Z,60.71
2023-05-21T19:11:23.609Z,60.65
2023-05-21T19:13:52.169Z,60.40
2023-05-21T19:16:20.588Z,60.72
2023-05-21T19:18:50.363Z,61.31
2023-05-21T19:21:18.966Z,61.99
2023-05-21T19:23:53.193Z,61.37
2023-05-21T19:26:22.858Z,61.46
2023-05-21T19:28:53.972Z,61.17
2023-05-21T19:31:23.523Z,61.69
2023-05-21T19:33:54.006Z,61.50
2023-05-21T19:36:22.741Z,62.68
2023-05-21T19:38:51.920Z,62.58
2023-05-21T19:41:21.607Z,62.74
2023-05-21T19:43:49.997Z,64.01
2023-05-21T19:46:20.474Z,64.04
2023-05-21T19:48:49.776Z,64.30
2023-05-21T19:51:19.782Z,65.77
2023-05-21T19:53:48.184Z,65.76
2023-05-21T19:56:16.952Z,66.43
2023-05-21T19:58:47.174Z,66.42
2023-05-21T20:01:17.892Z,65.94
2023-05-21T20:03:46.421Z,66.62
2023-05-21T20:06:16.915Z,66.56
2023-05-21T20:08:46.588Z,66.32
2023-05-21T20:11:14.914Z,66.62
2023-05-21T20:13:48.456Z,66.56
2023-05-21T20:16:18.300Z,66.03
2023-05-21T20:18:47.344Z,67.99
2023-05-21T20:21:17.568Z,68.14
2023-05-21T20:23:47.613Z,68.62
2023-05-21T20:26:17.258Z,68.55
2023-05-21T20:28:45.870Z,67.78
2023-05-21T20:31:14.766Z,67.84
2023-05-21T20:33:43.264Z,68.71
2023-05-21T20:36:13.584Z,68.75
2023-05-21T20:38:42.163Z,68.24
2023-05-21T20:41:11.892Z,68.77
2023-05-21T20:43:40.291Z,68.64
2023-05-21T20:46:08.607Z,69.10
2023-05-21T20:48:37.847Z,69.50
2023-05-21T20:51:07.259Z,69.85
2023-05-21T20:53:35.627Z,69.46
2023-05-21T20:56:08.368Z,69.50
2023-05-21T20:58:39.976Z,70.27
2023-05-21T21:01:10.713Z,70.56
2023-05-21T21:03:41.425Z,70.19
2023-05-21T21:06:10.023Z,70.24
2023-05-21T21:08:40.367Z,71.06
2023-05-21T21:11:09.442Z,70.54
2023-05-21T21:13:39.826Z,70.91
2023-05-21T21:16:10.136Z,70.55
2023-05-21T21:18:38.515Z,69.96
2023-05-21T21:21:07.560Z,70.49
2023-05-21T21:23:35.896Z,70.89
2023-05-21T21:26:04.210Z,71.04
2023-05-21T21:28:32.447Z,71.27
2023-05-21T21:31:02.562Z,71.36
2023-05-21T21:33:31.271Z,71.71
2023-05-21T21:36:02.058Z,71.33
2023-05-21T21:38:30.804Z,71.98
2023-05-21T21:40:59.178Z,71.85
2023-05-21T21:43:27.577Z,73.13
2023-05-21T21:45:56.265Z,73.92
2023-05-21T21:48:27.181Z,73.78
2023-05-21T21:50:55.872Z,73.43
2023-05-21T21:53:25.405Z,73.92
2023-05-21T21:55:55.159Z,74.26
2023-05-21T21:58:23.541Z,74.73
2023-05-21T22:00:51.988Z,73.99
2023-05-21T22:03:20.809Z,73.00
2023-05-21T22:05:51.713Z,74.39
2023-05-21T22:08:20.098Z,74.04
2023-05-21T22:10:48.596Z,74.31
2023-05-21T22:13:17.365Z,74.02
2023-05-21T22:15:46.068Z,75.00
2023-05-21T22:18:28.242Z,75.07
2023-05-21T22:21:09.218Z,75.88
2023-05-21T22:23:38.508Z,75.68
2023-05-21T22:26:07.281Z,75.38
2023-05-21T22:28:35.513Z,75.85
2023-05-21T22:31:03.988Z,76.12
2023-05-21T22:33:32.535Z,76.17
2023-05-21T22:36:00.907Z,76.54
2023-05-21T22:38:30.563Z,75.96
2023-05-21T22:40:59.309Z,77.08
2023-05-21T22:43:27.665Z,77.16
2023-05-21T22:45:56.379Z,77.13
2023-05-21T22:48:24.862Z,76.29
2023-05-21T22:50:54.785Z,77.05
2023-05-21T22:53:23.653Z,77.30
2023-05-21T22:55:53.457Z,77.57
2023-05-21T22:58:22.350Z,77.89
2023-05-21T23:00:50.936Z,78.15
2023-05-21T23:03:19.441Z,78.09
2023-05-21T23:05:48.132Z,77.53
2023-05-21T23:08:16.586Z,76.90
2023-05-21T23:10:45.183Z,77.72
2023-05-21T23:13:14.992Z,77.48
2023-05-21T23:15:44.142Z,77.10
2023-05-21T23:18:12.758Z,77.03
2023-05-21T23:20:41.962Z,77.96
2023-05-21T23:23:10.939Z,77.35
2023-05-21T23:25:39.382Z,77.92
2023-05-21T23:28:07.984Z,77.94
2023-05-21T23:30:38.989Z,78.07
2023-05-21T23:33:07.500Z,78.92
2023-05-21T23:35:37.468Z,78.51
2023-05-21T23:38:05.708Z,77.66
2023-05-21T23:40:33.951Z,77.40
2023-05-21T23:43:02.332Z,77.03
2023-05-21T23:45:31.828Z,77.53
2023-05-21T23:48:01.544Z,77.45
2023-05-21T23:50:30.375Z,76.84
2023-05-21T23:52:59.343Z,76.68
2023-05-21T23:55:27.819Z,77.53
2023-05-21T23:57:56.099Z,77.86
